Time;durP1;ratioP1;P1;durP2;ratioP2;P2;SDS_P1;SDS_P2;PMS_P1;PMS_P2;Temp;Humidity;BMP_temperature;BMP_pressure;BME280_temperature;BME280_humidity;BME280_pressure;Samples;Min_cycle;Max_cycle;Signal;HPM_P1;HPM_P2
2023/05/09 00:00:31;;;;;;;2.73;1.03;;;;;;;;;;5025542;28;20433;-87
2023/05/09 00:02:57;;;;;;;2.53;0.67;;;;;;;;;;5021192;28;20959;-84
2023/05/09 00:05:23;;;;;;;1.00;0.60;;;;;;;;;;5025605;28;20466;-81
2023/05/09 00:07:52;;;;;;;0.87;0.40;;;;;;;;;;5043088;28;20409;-80
2023/05/09 00:10:18;;;;;;;1.80;0.80;;;;;;;;;;5039849;28;20412;-80
2023/05/09 00:12:44;;;;;;;2.60;0.90;;;;;;;;;;5042251;28;22370;-81
2023/05/09 00:15:10;;;;;;;1.60;1.00;;;;;;;;;;5042702;28;20420;-81
2023/05/09 00:17:37;;;;;;;1.67;0.90;;;;;;;;;;5044398;28;20410;-81
2023/05/09 00:20:10;;;;;;;2.57;1.00;;;;;;;;;;5043025;28;20829;-82
2023/05/09 00:22:36;;;;;;;3.33;0.97;;;;;;;;;;5042138;28;20885;-81
2023/05/09 00:25:02;;;;;;;1.20;0.60;;;;;;;;;;5043647;28;20421;-82
2023/05/09 00:27:29;;;;;;;1.20;0.63;;;;;;;;;;5043065;28;20964;-81
2023/05/09 00:29:55;;;;;;;1.40;0.73;;;;;;;;;;5044566;28;20926;-83
2023/05/09 00:32:25;;;;;;;1.27;0.60;;;;;;;;;;5042552;28;20404;-81
2023/05/09 00:34:51;;;;;;;1.70;1.07;;;;;;;;;;5042377;28;20416;-81
2023/05/09 00:37:18;;;;;;;2.30;1.07;;;;;;;;;;5044062;28;20401;-80
2023/05/09 00:39:44;;;;;;;7.60;1.50;;;;;;;;;;5042707;28;20406;-81
2023/05/09 00:42:10;;;;;;;2.20;1.10;;;;;;;;;;5042023;28;20420;-81
2023/05/09 00:44:36;;;;;;;5.33;0.87;;;;;;;;;;5043937;28;20408;-80
2023/05/09 00:47:02;;;;;;;4.57;1.30;;;;;;;;;;5024071;28;20429;-81
2023/05/09 00:49:28;;;;;;;2.20;1.03;;;;;;;;;;5040372;28;20748;-81
2023/05/09 00:51:55;;;;;;;2.93;1.03;;;;;;;;;;5041836;28;20814;-81
2023/05/09 00:54:21;;;;;;;2.23;0.73;;;;;;;;;;5043200;28;20505;-80
2023/05/09 00:56:47;;;;;;;2.43;1.00;;;;;;;;;;5042765;28;20761;-80
2023/05/09 00:59:13;;;;;;;2.30;0.97;;;;;;;;;;5041754;28;20423;-81
2023/05/09 01:01:39;;;;;;;2.40;0.80;;;;;;;;;;5043666;28;20765;-85
2023/05/09 01:04:08;;;;;;;1.47;1.20;;;;;;;;;;5042703;28;20935;-78
2023/05/09 01:06:55;;;;;;;1.63;1.03;;;;;;;;;;5023504;28;20410;-83
2023/05/09 01:09:29;;;;;;;2.67;0.90;;;;;;;;;;5038423;28;20805;-81
2023/05/09 01:12:14;;;;;;;2.40;1.07;;;;;;;;;;5032436;28;20763;-80
2023/05/09 01:14:43;;;;;;;1.93;1.10;;;;;;;;;;5032984;28;20531;-83
2023/05/09 01:17:18;;;;;;;2.60;1.10;;;;;;;;;;5032930;28;20499;-85
2023/05/09 01:19:56;;;;;;;3.33;1.13;;;;;;;;;;5033004;28;20919;-85
2023/05/09 01:22:26;;;;;;;1.50;1.20;;;;;;;;;;5032818;28;20409;-81
2023/05/09 01:25:01;;;;;;;1.70;0.80;;;;;;;;;;5033140;28;20410;-82
2023/05/09 01:27:43;;;;;;;4.43;1.00;;;;;;;;;;5032298;28;20453;-80
2023/05/09 01:30:10;;;;;;;1.00;0.80;;;;;;;;;;5032892;28;20420;-81
2023/05/09 01:32:37;;;;;;;1.73;0.87;;;;;;;;;;5032859;28;20406;-82
2023/05/09 01:35:04;;;;;;;2.17;1.20;;;;;;;;;;5033453;28;20490;-81
2023/05/09 01:37:35;;;;;;;2.30;1.50;;;;;;;;;;5036882;28;20445;-80
2023/05/09 01:40:09;;;;;;;1.90;0.80;;;;;;;;;;5018952;28;20752;-80
2023/05/09 01:42:53;;;;;;;2.37;1.43;;;;;;;;;;5036857;28;20419;-80
2023/05/09 01:45:20;;;;;;;1.30;1.20;;;;;;;;;;5036804;28;20412;-82
2023/05/09 01:47:46;;;;;;;3.33;1.17;;;;;;;;;;5036679;28;20480;-83
2023/05/09 01:50:13;;;;;;;1.40;0.90;;;;;;;;;;5036677;28;20510;-81
2023/05/09 01:52:40;;;;;;;1.17;1.07;;;;;;;;;;5018980;28;20426;-81
2023/05/09 01:55:06;;;;;;;5.23;1.90;;;;;;;;;;5036248;28;20430;-85
2023/05/09 01:57:34;;;;;;;2.70;0.90;;;;;;;;;;5018746;28;20782;-81
2023/05/09 02:00:01;;;;;;;2.00;0.90;;;;;;;;;;5036463;28;20430;-80
2023/05/09 02:02:27;;;;;;;1.20;0.70;;;;;;;;;;5036760;28;20402;-81
2023/05/09 02:04:55;;;;;;;3.50;1.20;;;;;;;;;;5036309;28;20421;-82
2023/05/09 02:07:22;;;;;;;4.10;1.00;;;;;;;;;;5018586;28;20787;-84
2023/05/09 02:09:49;;;;;;;2.50;1.17;;;;;;;;;;5036374;28;20417;-85
2023/05/09 02:12:15;;;;;;;1.80;1.37;;;;;;;;;;5035882;28;20938;-80
2023/05/09 02:14:41;;;;;;;2.07;0.80;;;;;;;;;;5036398;28;20471;-80
2023/05/09 02:17:09;;;;;;;2.97;1.00;;;;;;;;;;5036218;28;20756;-83
2023/05/09 02:19:35;;;;;;;1.80;1.13;;;;;;;;;;5036091;28;20911;-84
2023/05/09 02:22:03;;;;;;;2.20;1.17;;;;;;;;;;5036161;28;20413;-85
2023/05/09 02:24:30;;;;;;;3.50;1.90;;;;;;;;;;5036080;28;20414;-84
2023/05/09 02:26:56;;;;;;;1.93;0.90;;;;;;;;;;5035505;28;20445;-86
2023/05/09 02:29:26;;;;;;;3.07;2.27;;;;;;;;;;5035963;28;20817;-83
2023/05/09 02:31:52;;;;;;;1.87;1.07;;;;;;;;;;5035798;28;20983;-86
2023/05/09 02:34:19;;;;;;;1.93;1.10;;;;;;;;;;5035764;28;20469;-84
2023/05/09 02:36:45;;;;;;;3.60;2.03;;;;;;;;;;5036002;28;20813;-85
2023/05/09 02:39:11;;;;;;;2.27;1.50;;;;;;;;;;5017946;28;20520;-86
2023/05/09 02:41:37;;;;;;;2.80;1.10;;;;;;;;;;5017680;28;20425;-84
2023/05/09 02:44:04;;;;;;;4.77;1.37;;;;;;;;;;5035658;28;20425;-85
2023/05/09 02:46:30;;;;;;;2.33;2.03;;;;;;;;;;5018828;28;20435;-85
2023/05/09 02:48:56;;;;;;;2.60;1.37;;;;;;;;;;5035804;28;20456;-86
2023/05/09 02:51:22;;;;;;;3.80;2.03;;;;;;;;;;5035593;28;20417;-80
2023/05/09 02:53:48;;;;;;;5.00;1.80;;;;;;;;;;5035442;28;21002;-85
2023/05/09 02:56:14;;;;;;;2.53;1.30;;;;;;;;;;5035149;28;20408;-85
2023/05/09 02:58:40;;;;;;;3.00;1.37;;;;;;;;;;5035507;28;20470;-81
2023/05/09 03:01:06;;;;;;;3.33;1.30;;;;;;;;;;5038275;28;20418;-84
2023/05/09 03:03:33;;;;;;;2.67;1.57;;;;;;;;;;5035691;28;20470;-79
2023/05/09 03:05:59;;;;;;;3.57;1.60;;;;;;;;;;5035346;28;20452;-79
2023/05/09 03:08:25;;;;;;;2.17;1.60;;;;;;;;;;5035366;28;20445;-84
2023/05/09 03:10:51;;;;;;;1.73;1.03;;;;;;;;;;5034841;28;20756;-79
2023/05/09 03:13:17;;;;;;;2.27;1.73;;;;;;;;;;5035194;28;20457;-80
2023/05/09 03:15:43;;;;;;;1.57;1.17;;;;;;;;;;5017627;28;20427;-85
2023/05/09 03:18:09;;;;;;;2.90;1.90;;;;;;;;;;5035809;28;20921;-81
2023/05/09 03:20:35;;;;;;;2.73;1.30;;;;;;;;;;5035074;28;20459;-84
2023/05/09 03:23:00;;;;;;;3.67;1.90;;;;;;;;;;5035204;28;20422;-80
2023/05/09 03:25:26;;;;;;;2.40;1.80;;;;;;;;;;5034658;28;20511;-85
2023/05/09 03:27:52;;;;;;;2.30;1.20;;;;;;;;;;5034632;28;20463;-80
2023/05/09 03:30:18;;;;;;;3.13;2.00;;;;;;;;;;5034774;28;20417;-85
2023/05/09 03:32:44;;;;;;;2.77;1.93;;;;;;;;;;5034820;28;20481;-84
2023/05/09 03:35:10;;;;;;;3.73;1.90;;;;;;;;;;5034760;28;20527;-79
2023/05/09 03:37:36;;;;;;;3.30;1.40;;;;;;;;;;5034861;28;20444;-85
2023/05/09 03:40:02;;;;;;;2.60;1.50;;;;;;;;;;5034390;28;20945;-79
2023/05/09 03:42:28;;;;;;;2.93;1.73;;;;;;;;;;5036127;28;20441;-79
2023/05/09 03:44:54;;;;;;;3.30;2.30;;;;;;;;;;5035378;28;20415;-84
2023/05/09 03:47:20;;;;;;;2.40;1.57;;;;;;;;;;5034519;28;20813;-80
2023/05/09 03:49:46;;;;;;;1.63;1.33;;;;;;;;;;5034644;28;20444;-86
2023/05/09 03:52:12;;;;;;;2.10;1.50;;;;;;;;;;5034448;28;20444;-85
2023/05/09 03:54:38;;;;;;;3.80;2.20;;;;;;;;;;5035322;28;20481;-86
2023/05/09 03:57:04;;;;;;;2.60;1.77;;;;;;;;;;5016214;28;20932;-84
2023/05/09 03:59:30;;;;;;;2.73;1.27;;;;;;;;;;5034330;28;20429;-86
2023/05/09 04:01:56;;;;;;;6.97;3.00;;;;;;;;;;5034379;28;20493;-85
2023/05/09 04:04:22;;;;;;;2.00;1.43;;;;;;;;;;5034152;28;20427;-80
2023/05/09 04:06:48;;;;;;;2.23;1.30;;;;;;;;;;5016368;28;20473;-86
2023/05/09 04:09:16;;;;;;;3.80;2.23;;;;;;;;;;5016398;28;20930;-80
2023/05/09 04:11:42;;;;;;;3.75;2.58;;;;;;;;;;5032439;28;20417;-89
2023/05/09 04:14:08;;;;;;;3.57;2.10;;;;;;;;;;5033926;28;20208;-81
2023/05/09 04:16:34;;;;;;;3.20;1.70;;;;;;;;;;5034046;28;20420;-85
2023/05/09 04:19:00;;;;;;;3.40;2.53;;;;;;;;;;5034271;28;20425;-80
2023/05/09 04:21:26;;;;;;;3.47;1.87;;;;;;;;;;5016102;28;20412;-84
2023/05/09 04:23:52;;;;;;;4.20;1.83;;;;;;;;;;5016044;28;20431;-85
2023/05/09 04:26:18;;;;;;;2.40;1.53;;;;;;;;;;5033252;28;20481;-87
2023/05/09 04:28:44;;;;;;;3.53;1.90;;;;;;;;;;5016035;28;20428;-80
2023/05/09 04:31:11;;;;;;;6.33;3.30;;;;;;;;;;5033647;28;20431;-86
2023/05/09 04:33:38;;;;;;;3.13;1.80;;;;;;;;;;5033426;28;20843;-85
2023/05/09 04:36:04;;;;;;;2.70;1.43;;;;;;;;;;5033631;28;20408;-84
2023/05/09 04:38:30;;;;;;;3.37;1.33;;;;;;;;;;5033609;28;20892;-82
2023/05/09 04:40:57;;;;;;;4.00;1.57;;;;;;;;;;5033161;28;20439;-84
2023/05/09 04:43:26;;;;;;;2.00;1.60;;;;;;;;;;5015904;28;20423;-83
2023/05/09 04:45:52;;;;;;;2.47;2.00;;;;;;;;;;5016030;28;20427;-79
2023/05/09 04:48:18;;;;;;;6.90;1.80;;;;;;;;;;5033326;28;20769;-80
2023/05/09 04:50:47;;;;;;;2.87;1.40;;;;;;;;;;5037112;28;20428;-84
2023/05/09 04:53:13;;;;;;;2.50;1.33;;;;;;;;;;5049201;28;20983;-83
2023/05/09 04:55:39;;;;;;;2.87;2.03;;;;;;;;;;5052819;28;20409;-86
2023/05/09 04:58:04;;;;;;;3.63;1.53;;;;;;;;;;5053120;28;20419;-86
2023/05/09 05:00:33;;;;;;;2.77;1.77;;;;;;;;;;5050337;28;20421;-84
2023/05/09 05:02:59;;;;;;;2.17;1.30;;;;;;;;;;5032650;28;20412;-86
2023/05/09 05:05:25;;;;;;;2.60;1.80;;;;;;;;;;5043692;28;20469;-80
2023/05/09 05:07:52;;;;;;;2.20;1.67;;;;;;;;;;5041843;28;20851;-79
2023/05/09 05:10:19;;;;;;;3.20;1.83;;;;;;;;;;5040776;28;20626;-85
2023/05/09 05:12:45;;;;;;;2.50;1.63;;;;;;;;;;5043601;28;20397;-85
2023/05/09 05:15:11;;;;;;;2.00;1.67;;;;;;;;;;5023525;28;20829;-83
2023/05/09 05:17:37;;;;;;;3.53;1.53;;;;;;;;;;5040051;28;20433;-86
2023/05/09 05:20:05;;;;;;;4.53;2.43;;;;;;;;;;5041625;28;21613;-83
2023/05/09 05:22:31;;;;;;;3.93;2.03;;;;;;;;;;5041694;28;20413;-91
2023/05/09 05:24:57;;;;;;;3.50;2.60;;;;;;;;;;5043143;28;20413;-84
2023/05/09 05:27:23;;;;;;;3.13;1.60;;;;;;;;;;5042231;28;20520;-84
2023/05/09 05:29:51;;;;;;;3.20;1.97;;;;;;;;;;5041637;28;20409;-86
2023/05/09 05:32:17;;;;;;;3.30;2.50;;;;;;;;;;5041643;28;20922;-88
2023/05/09 05:34:43;;;;;;;3.37;2.03;;;;;;;;;;5051496;28;20526;-84
2023/05/09 05:37:09;;;;;;;4.30;2.30;;;;;;;;;;5052527;28;20918;-90
2023/05/09 05:39:35;;;;;;;2.40;1.80;;;;;;;;;;5034375;28;20458;-87
2023/05/09 05:42:01;;;;;;;4.33;1.80;;;;;;;;;;5052755;28;20435;-84
2023/05/09 05:44:27;;;;;;;4.23;3.00;;;;;;;;;;5034750;28;20176;-86
2023/05/09 05:46:53;;;;;;;4.23;2.23;;;;;;;;;;5034786;28;20186;-84
2023/05/09 05:49:19;;;;;;;4.33;2.63;;;;;;;;;;5052566;28;20493;-85
2023/05/09 05:51:45;;;;;;;2.90;1.67;;;;;;;;;;5052662;28;20168;-84
2023/05/09 05:54:10;;;;;;;2.53;1.43;;;;;;;;;;5052596;28;20473;-81
2023/05/09 05:56:36;;;;;;;5.70;2.20;;;;;;;;;;5052236;28;20176;-82
2023/05/09 05:59:02;;;;;;;2.83;1.53;;;;;;;;;;5034603;28;20192;-84
2023/05/09 06:01:28;;;;;;;3.47;1.57;;;;;;;;;;5052497;28;20404;-83
2023/05/09 06:03:54;;;;;;;2.53;2.07;;;;;;;;;;5034517;28;20426;-85
2023/05/09 06:06:23;;;;;;;2.00;1.27;;;;;;;;;;5052311;28;20912;-82
2023/05/09 06:08:49;;;;;;;5.07;2.57;;;;;;;;;;5052534;28;20840;-83
2023/05/09 06:11:16;;;;;;;4.17;2.43;;;;;;;;;;5052048;28;20437;-84
2023/05/09 06:13:41;;;;;;;2.87;2.03;;;;;;;;;;5052393;28;20475;-85
2023/05/09 06:16:07;;;;;;;2.53;1.83;;;;;;;;;;5052301;28;20891;-82
2023/05/09 06:18:36;;;;;;;2.87;1.60;;;;;;;;;;5052317;28;20456;-82
2023/05/09 06:21:02;;;;;;;4.03;2.20;;;;;;;;;;5052890;28;20460;-86
2023/05/09 06:23:28;;;;;;;3.00;2.17;;;;;;;;;;5056142;28;20802;-89
2023/05/09 06:25:54;;;;;;;3.73;3.20;;;;;;;;;;5055399;28;20413;-85
2023/05/09 06:28:20;;;;;;;2.70;1.63;;;;;;;;;;5055936;28;20179;-85
2023/05/09 06:30:46;;;;;;;7.10;2.20;;;;;;;;;;5055967;28;20509;-84
2023/05/09 06:33:12;;;;;;;3.67;2.00;;;;;;;;;;5055767;28;20489;-83
2023/05/09 06:35:38;;;;;;;2.53;1.50;;;;;;;;;;5055737;28;20694;-85
2023/05/09 06:38:07;;;;;;;2.43;2.03;;;;;;;;;;5055835;28;20169;-84
2023/05/09 06:40:33;;;;;;;2.27;2.07;;;;;;;;;;5055278;28;20178;-84
2023/05/09 06:42:59;;;;;;;1.93;1.70;;;;;;;;;;5055714;28;20397;-85
2023/05/09 06:45:25;;;;;;;3.50;1.90;;;;;;;;;;5055620;28;20405;-85
2023/05/09 06:47:51;;;;;;;3.07;1.80;;;;;;;;;;5055524;28;20404;-83
2023/05/09 06:50:17;;;;;;;3.33;2.10;;;;;;;;;;5055618;28;20909;-86
2023/05/09 06:52:43;;;;;;;4.53;2.67;;;;;;;;;;5055414;28;20411;-85
2023/05/09 06:55:09;;;;;;;2.43;1.70;;;;;;;;;;5055196;28;20420;-85
2023/05/09 06:57:35;;;;;;;3.00;1.87;;;;;;;;;;5055401;28;20465;-83
2023/05/09 07:00:01;;;;;;;3.37;2.13;;;;;;;;;;5055364;28;20413;-85
2023/05/09 07:02:28;;;;;;;3.43;2.13;;;;;;;;;;5055349;28;20404;-85
2023/05/09 07:04:54;;;;;;;5.03;1.93;;;;;;;;;;5055308;28;20416;-85
2023/05/09 07:07:21;;;;;;;3.80;2.20;;;;;;;;;;5055284;28;20174;-85
2023/05/09 07:09:46;;;;;;;2.87;1.97;;;;;;;;;;5055096;28;20405;-85
2023/05/09 07:12:12;;;;;;;3.60;2.00;;;;;;;;;;5037137;28;20470;-83
2023/05/09 07:14:40;;;;;;;2.93;2.00;;;;;;;;;;5037087;28;20675;-84
2023/05/09 07:17:07;;;;;;;3.17;2.60;;;;;;;;;;5054980;28;20174;-85
2023/05/09 07:19:33;;;;;;;2.40;2.00;;;;;;;;;;5055078;28;20970;-86
2023/05/09 07:21:59;;;;;;;3.10;2.37;;;;;;;;;;5036986;28;20503;-84
2023/05/09 07:24:25;;;;;;;3.40;2.70;;;;;;;;;;5054550;28;21087;-84
2023/05/09 07:26:51;;;;;;;3.03;1.70;;;;;;;;;;5054727;28;20326;-83
2023/05/09 07:29:18;;;;;;;2.80;2.33;;;;;;;;;;5037018;28;20178;-84
2023/05/09 07:31:44;;;;;;;2.90;1.80;;;;;;;;;;5054641;28;20219;-82
2023/05/09 07:34:10;;;;;;;4.90;1.77;;;;;;;;;;5053658;28;20965;-85
2023/05/09 07:36:37;;;;;;;6.17;1.90;;;;;;;;;;5054833;28;20171;-84
2023/05/09 07:39:03;;;;;;;4.10;1.43;;;;;;;;;;5054753;28;20184;-84
2023/05/09 07:41:29;;;;;;;3.97;2.20;;;;;;;;;;5036808;28;20506;-84
2023/05/09 07:43:55;;;;;;;2.73;1.80;;;;;;;;;;5054693;28;20832;-87
2023/05/09 07:46:21;;;;;;;3.30;2.10;;;;;;;;;;5054562;28;20503;-84
2023/05/09 07:48:47;;;;;;;2.87;1.70;;;;;;;;;;5054490;28;20175;-86
2023/05/09 07:51:13;;;;;;;2.50;1.70;;;;;;;;;;5036433;28;20583;-83
2023/05/09 07:53:39;;;;;;;2.57;1.83;;;;;;;;;;5054226;28;20484;-82
2023/05/09 07:56:08;;;;;;;2.33;1.33;;;;;;;;;;5053967;28;20211;-84
2023/05/09 07:58:34;;;;;;;2.97;1.90;;;;;;;;;;5054374;28;20401;-84
2023/05/09 08:01:00;;;;;;;3.03;2.20;;;;;;;;;;5036313;28;20511;-86
2023/05/09 08:03:32;;;;;;;2.90;2.10;;;;;;;;;;5054105;28;20189;-84
2023/05/09 08:05:58;;;;;;;1.77;1.63;;;;;;;;;;5054033;28;20455;-83
2023/05/09 08:08:24;;;;;;;3.00;1.80;;;;;;;;;;5054062;28;20440;-83
2023/05/09 08:10:49;;;;;;;2.93;2.40;;;;;;;;;;5053662;28;20447;-84
2023/05/09 08:13:17;;;;;;;2.07;1.60;;;;;;;;;;5053872;28;20531;-86
2023/05/09 08:15:43;;;;;;;5.93;2.30;;;;;;;;;;5053748;28;20196;-85
2023/05/09 08:18:09;;;;;;;2.27;2.07;;;;;;;;;;5053853;28;20411;-85
2023/05/09 08:20:37;;;;;;;4.13;2.40;;;;;;;;;;5053724;28;20177;-84
2023/05/09 08:23:03;;;;;;;3.50;1.83;;;;;;;;;;5053694;28;20184;-87
2023/05/09 08:25:29;;;;;;;2.13;1.70;;;;;;;;;;5053409;28;20419;-86
2023/05/09 08:27:55;;;;;;;2.80;1.93;;;;;;;;;;5053604;28;20585;-85
2023/05/09 08:30:21;;;;;;;2.10;1.90;;;;;;;;;;5053668;28;20772;-84
2023/05/09 08:32:47;;;;;;;2.00;1.80;;;;;;;;;;5053594;28;20415;-84
2023/05/09 08:35:13;;;;;;;2.60;2.00;;;;;;;;;;5053548;28;20482;-85
2023/05/09 08:37:39;;;;;;;2.80;1.60;;;;;;;;;;5035709;28;20640;-85
2023/05/09 08:40:09;;;;;;;1.90;1.60;;;;;;;;;;5035217;28;20267;-84
2023/05/09 08:42:38;;;;;;;3.70;2.30;;;;;;;;;;5053491;28;20447;-87
2023/05/09 08:45:13;;;;;;;2.40;1.70;;;;;;;;;;5053223;28;20499;-84
2023/05/09 08:47:40;;;;;;;2.00;1.50;;;;;;;;;;5053345;28;20477;-87
2023/05/09 08:50:07;;;;;;;2.07;1.47;;;;;;;;;;5053394;28;20755;-87
2023/05/09 08:52:33;;;;;;;2.80;1.83;;;;;;;;;;5035368;28;20515;-86
2023/05/09 08:55:00;;;;;;;2.50;2.10;;;;;;;;;;5052685;28;20476;-83
2023/05/09 08:57:26;;;;;;;3.23;1.50;;;;;;;;;;5053175;28;20649;-82
2023/05/09 08:59:52;;;;;;;3.73;1.53;;;;;;;;;;5053219;28;20435;-85
2023/05/09 09:02:20;;;;;;;2.30;1.63;;;;;;;;;;5053109;28;20886;-85
2023/05/09 09:04:46;;;;;;;2.20;1.63;;;;;;;;;;5053041;28;20575;-84
2023/05/09 09:07:13;;;;;;;3.47;2.00;;;;;;;;;;5053057;28;20442;-84
2023/05/09 09:09:44;;;;;;;2.10;1.30;;;;;;;;;;5053586;28;20578;-86
2023/05/09 09:12:11;;;;;;;2.50;1.47;;;;;;;;;;5053030;28;20407;-85
2023/05/09 09:14:37;;;;;;;2.50;1.60;;;;;;;;;;5052925;28;20466;-85
2023/05/09 09:17:05;;;;;;;2.50;1.93;;;;;;;;;;5035093;28;20446;-86
2023/05/09 09:19:33;;;;;;;2.40;1.50;;;;;;;;;;5052738;28;20995;-84
2023/05/09 09:21:59;;;;;;;2.40;1.67;;;;;;;;;;5052855;28;20477;-85
2023/05/09 09:24:25;;;;;;;1.83;1.50;;;;;;;;;;5052485;28;20455;-84
2023/05/09 09:26:51;;;;;;;2.80;1.73;;;;;;;;;;5052703;28;20462;-84
2023/05/09 09:29:19;;;;;;;2.50;1.40;;;;;;;;;;5052804;28;20646;-86
2023/05/09 09:31:45;;;;;;;2.20;1.93;;;;;;;;;;5034836;28;20894;-85
2023/05/09 09:34:13;;;;;;;1.90;1.70;;;;;;;;;;5052699;28;20471;-84
2023/05/09 09:36:39;;;;;;;1.80;1.40;;;;;;;;;;5052766;28;20997;-85
2023/05/09 09:39:05;;;;;;;1.47;1.37;;;;;;;;;;5052451;28;20937;-86
2023/05/09 09:41:34;;;;;;;2.90;2.47;;;;;;;;;;5056116;28;20408;-84
2023/05/09 09:44:07;;;;;;;1.60;1.40;;;;;;;;;;5052918;28;20423;-86
2023/05/09 09:46:52;;;;;;;3.10;2.07;;;;;;;;;;5034641;28;20456;-83
2023/05/09 09:49:19;;;;;;;1.60;0.90;;;;;;;;;;5052644;28;20419;-85
2023/05/09 09:51:49;;;;;;;2.30;1.40;;;;;;;;;;5052575;28;20867;-85
2023/05/09 09:54:15;;;;;;;4.90;1.50;;;;;;;;;;5052249;28;20478;-85
2023/05/09 09:56:42;;;;;;;1.53;1.20;;;;;;;;;;5054254;28;20403;-83
2023/05/09 09:59:12;;;;;;;1.80;1.20;;;;;;;;;;5056562;28;20212;-86
2023/05/09 10:01:56;;;;;;;1.70;1.60;;;;;;;;;;5056451;28;20436;-85
2023/05/09 10:04:23;;;;;;;3.17;2.17;;;;;;;;;;5038605;28;20408;-84
2023/05/09 10:06:53;;;;;;;2.80;1.70;;;;;;;;;;5056362;28;20416;-84
2023/05/09 10:09:20;;;;;;;2.30;1.90;;;;;;;;;;5056020;28;20778;-87
2023/05/09 10:11:47;;;;;;;1.40;1.30;;;;;;;;;;5056387;28;20893;-86
2023/05/09 10:14:13;;;;;;;3.10;1.63;;;;;;;;;;5056204;28;20556;-86
2023/05/09 10:16:39;;;;;;;1.97;1.03;;;;;;;;;;5056189;28;20419;-85
2023/05/09 10:19:05;;;;;;;1.70;1.20;;;;;;;;;;5056212;28;20417;-88
2023/05/09 10:21:32;;;;;;;1.80;1.10;;;;;;;;;;5056116;28;20176;-85
2023/05/09 10:23:58;;;;;;;2.77;0.93;;;;;;;;;;5037922;28;20428;-84
2023/05/09 10:26:27;;;;;;;2.23;1.80;;;;;;;;;;5034590;28;20467;-86
2023/05/09 10:28:55;;;;;;;1.93;1.20;;;;;;;;;;5036070;28;20488;-85
2023/05/09 10:31:24;;;;;;;1.57;1.27;;;;;;;;;;5035930;28;20405;-84
2023/05/09 10:33:50;;;;;;;1.43;1.33;;;;;;;;;;5034635;28;20883;-86
2023/05/09 10:36:19;;;;;;;1.43;1.23;;;;;;;;;;5035942;28;20832;-83
2023/05/09 10:38:46;;;;;;;1.80;1.67;;;;;;;;;;5035546;28;20401;-85
2023/05/09 10:41:12;;;;;;;1.80;1.43;;;;;;;;;;5035839;28;20495;-84
2023/05/09 10:43:38;;;;;;;1.83;1.33;;;;;;;;;;5035714;28;20416;-87
2023/05/09 10:46:05;;;;;;;2.67;1.50;;;;;;;;;;5035713;28;20464;-87
2023/05/09 10:48:34;;;;;;;2.60;1.60;;;;;;;;;;5035781;28;20405;-85
2023/05/09 10:51:01;;;;;;;1.53;1.27;;;;;;;;;;5034343;28;20417;-85
2023/05/09 10:53:47;;;;;;;1.90;1.60;;;;;;;;;;5035535;28;20467;-85
2023/05/09 10:56:24;;;;;;;1.47;1.37;;;;;;;;;;5035626;28;20417;-83
2023/05/09 10:58:49;;;;;;;1.47;1.37;;;;;;;;;;5035468;28;20405;-83
2023/05/09 11:01:27;;;;;;;1.70;1.60;;;;;;;;;;5035339;28;20416;-83
2023/05/09 11:03:54;;;;;;;1.67;1.07;;;;;;;;;;5034141;28;20182;-84
2023/05/09 11:06:39;;;;;;;1.70;1.40;;;;;;;;;;5035385;28;20923;-87
2023/05/09 11:09:31;;;;;;;2.50;1.37;;;;;;;;;;5033504;28;20404;-86
2023/05/09 11:12:01;;;;;;;1.87;1.30;;;;;;;;;;5035213;28;20401;-86
2023/05/09 11:14:31;;;;;;;1.50;1.20;;;;;;;;;;5035105;28;20472;-84
2023/05/09 11:17:05;;;;;;;1.80;1.60;;;;;;;;;;5035233;28;20969;-84
2023/05/09 11:19:46;;;;;;;1.63;1.53;;;;;;;;;;5035109;28;20523;-86
2023/05/09 11:22:16;;;;;;;1.67;1.30;;;;;;;;;;5035095;28;20910;-86
2023/05/09 11:24:55;;;;;;;1.80;1.30;;;;;;;;;;5034892;28;20520;-83
2023/05/09 11:27:22;;;;;;;1.60;1.50;;;;;;;;;;5047201;28;20513;-84
2023/05/09 11:29:51;;;;;;;2.40;1.63;;;;;;;;;;5054933;28;20462;-85
2023/05/09 11:32:18;;;;;;;1.97;1.77;;;;;;;;;;5054928;28;20400;-87
2023/05/09 11:34:44;;;;;;;2.40;1.67;;;;;;;;;;5054719;28;20475;-87
2023/05/09 11:37:10;;;;;;;5.00;1.50;;;;;;;;;;5036806;28;20766;-85
2023/05/09 11:39:54;;;;;;;2.23;1.37;;;;;;;;;;5036162;28;20431;-83
2023/05/09 11:42:20;;;;;;;1.93;1.10;;;;;;;;;;5037159;28;20787;-83
2023/05/09 11:44:47;;;;;;;2.20;1.30;;;;;;;;;;5054617;28;20843;-83
2023/05/09 11:47:13;;;;;;;1.93;1.57;;;;;;;;;;5054504;28;20400;-86
2023/05/09 11:49:42;;;;;;;2.70;1.60;;;;;;;;;;5054457;28;20439;-84
2023/05/09 11:52:08;;;;;;;2.83;1.10;;;;;;;;;;5054572;28;20408;-84
2023/05/09 11:54:37;;;;;;;3.53;2.10;;;;;;;;;;5053866;28;20471;-82
2023/05/09 11:57:03;;;;;;;1.80;1.70;;;;;;;;;;5036441;28;20231;-85
2023/05/09 11:59:29;;;;;;;2.77;2.57;;;;;;;;;;5054301;28;20431;-85
2023/05/09 12:01:55;;;;;;;2.63;1.80;;;;;;;;;;5054104;28;20898;-84
2023/05/09 12:04:21;;;;;;;8.23;6.20;;;;;;;;;;5043376;28;20186;-88
2023/05/09 12:06:48;;;;;;;4.60;4.20;;;;;;;;;;5043570;28;20169;-85
2023/05/09 12:09:15;;;;;;;4.47;3.80;;;;;;;;;;5044223;28;20227;-85
2023/05/09 12:11:47;;;;;;;2.90;2.70;;;;;;;;;;5034161;28;20420;-83
2023/05/09 12:14:25;;;;;;;2.97;1.97;;;;;;;;;;5034084;28;20475;-84
2023/05/09 12:16:51;;;;;;;8.10;2.63;;;;;;;;;;5034144;28;20474;-84
2023/05/09 12:19:18;;;;;;;2.20;2.00;;;;;;;;;;5033398;28;21064;-84
2023/05/09 12:21:44;;;;;;;3.23;1.83;;;;;;;;;;5033927;28;20249;-83
2023/05/09 12:24:10;;;;;;;1.73;1.53;;;;;;;;;;5033479;28;20437;-82
2023/05/09 12:26:36;;;;;;;1.97;1.20;;;;;;;;;;5033594;28;20453;-83
2023/05/09 12:29:02;;;;;;;2.10;1.53;;;;;;;;;;5016056;28;20428;-82
2023/05/09 12:31:28;;;;;;;1.53;1.10;;;;;;;;;;5037657;28;20177;-87
2023/05/09 12:33:54;;;;;;;4.33;1.40;;;;;;;;;;5024799;28;20471;-83
2023/05/09 12:36:20;;;;;;;1.37;1.17;;;;;;;;;;5037677;28;20412;-84
2023/05/09 12:38:55;;;;;;;4.10;1.50;;;;;;;;;;5036933;28;20429;-84
2023/05/09 12:41:21;;;;;;;2.23;2.03;;;;;;;;;;5033493;28;20405;-85
2023/05/09 12:43:48;;;;;;;2.10;1.70;;;;;;;;;;5015562;28;20421;-83
2023/05/09 12:46:17;;;;;;;1.70;1.07;;;;;;;;;;5033177;28;20397;-85
2023/05/09 12:48:43;;;;;;;2.80;2.50;;;;;;;;;;5015414;28;20428;-85
2023/05/09 12:51:09;;;;;;;2.23;1.30;;;;;;;;;;5033224;28;20445;-86
2023/05/09 12:53:39;;;;;;;3.53;1.80;;;;;;;;;;5032866;28;20507;-85
2023/05/09 12:56:11;;;;;;;2.23;1.83;;;;;;;;;;5033145;28;20769;-84
2023/05/09 12:58:37;;;;;;;1.73;1.20;;;;;;;;;;5032990;28;20444;-85
2023/05/09 13:01:06;;;;;;;2.30;1.77;;;;;;;;;;5015314;28;20512;-86
2023/05/09 13:03:36;;;;;;;1.47;1.30;;;;;;;;;;5032590;28;20447;-85
2023/05/09 13:06:12;;;;;;;1.40;1.20;;;;;;;;;;5032521;28;20424;-87
2023/05/09 13:08:39;;;;;;;2.20;1.20;;;;;;;;;;5032602;28;20500;-86
2023/05/09 13:11:04;;;;;;;1.90;1.70;;;;;;;;;;5033181;28;20413;-87
2023/05/09 13:13:30;;;;;;;1.63;1.47;;;;;;;;;;5032377;28;20457;-84
2023/05/09 13:15:56;;;;;;;2.10;1.30;;;;;;;;;;5032449;28;20269;-85
2023/05/09 13:18:23;;;;;;;1.80;1.70;;;;;;;;;;5032656;28;20827;-86
2023/05/09 13:20:50;;;;;;;1.40;1.17;;;;;;;;;;5014938;28;20201;-83
2023/05/09 13:23:16;;;;;;;2.13;1.80;;;;;;;;;;5014829;28;20412;-83
2023/05/09 13:25:42;;;;;;;2.70;1.10;;;;;;;;;;5032732;28;20466;-86
2023/05/09 13:28:08;;;;;;;2.70;1.83;;;;;;;;;;5032454;28;20540;-84
2023/05/09 13:30:34;;;;;;;1.90;1.40;;;;;;;;;;5031399;28;20413;-84
2023/05/09 13:33:00;;;;;;;2.07;1.60;;;;;;;;;;5032330;28;20457;-84
2023/05/09 13:35:26;;;;;;;1.27;0.97;;;;;;;;;;5032455;28;20510;-83
2023/05/09 13:37:52;;;;;;;1.73;1.20;;;;;;;;;;5032494;28;20592;-83
2023/05/09 13:40:18;;;;;;;5.50;1.00;;;;;;;;;;5018693;28;20425;-86
2023/05/09 13:42:44;;;;;;;3.43;1.57;;;;;;;;;;5014774;28;20416;-87
2023/05/09 13:45:10;;;;;;;2.10;1.80;;;;;;;;;;5015008;28;20915;-86
2023/05/09 13:47:36;;;;;;;1.93;1.83;;;;;;;;;;5032540;28;20411;-86
2023/05/09 13:50:02;;;;;;;1.67;1.20;;;;;;;;;;5032302;28;20471;-84
2023/05/09 13:52:31;;;;;;;2.50;1.60;;;;;;;;;;5048033;28;20872;-84
2023/05/09 13:54:57;;;;;;;1.70;1.20;;;;;;;;;;5019691;28;21078;-87
2023/05/09 13:57:23;;;;;;;3.87;1.70;;;;;;;;;;5032434;28;20416;-84
2023/05/09 13:59:55;;;;;;;2.60;1.23;;;;;;;;;;5032219;28;20415;-85
2023/05/09 14:02:21;;;;;;;1.70;1.50;;;;;;;;;;5014401;28;20424;-84
2023/05/09 14:04:47;;;;;;;1.90;1.57;;;;;;;;;;5032313;28;20418;-83
2023/05/09 14:07:19;;;;;;;1.63;1.50;;;;;;;;;;5032243;28;20412;-84
2023/05/09 14:09:46;;;;;;;2.13;1.27;;;;;;;;;;5031609;28;20411;-86
2023/05/09 14:12:12;;;;;;;1.70;1.60;;;;;;;;;;5032217;28;20406;-82
2023/05/09 14:14:38;;;;;;;1.30;1.13;;;;;;;;;;5031805;28;20536;-86
2023/05/09 14:17:04;;;;;;;1.60;1.50;;;;;;;;;;5014396;28;20431;-82
2023/05/09 14:19:30;;;;;;;1.27;1.10;;;;;;;;;;5032250;28;20185;-84
2023/05/09 14:21:56;;;;;;;6.13;1.33;;;;;;;;;;5032260;28;20185;-84
2023/05/09 14:24:21;;;;;;;1.87;1.20;;;;;;;;;;5031347;28;20424;-83
2023/05/09 14:26:50;;;;;;;1.73;1.30;;;;;;;;;;5051820;28;20478;-83
2023/05/09 14:29:16;;;;;;;2.47;1.37;;;;;;;;;;5034001;28;20176;-84
2023/05/09 14:31:42;;;;;;;1.67;1.27;;;;;;;;;;5051638;28;20427;-85
2023/05/09 14:34:08;;;;;;;2.30;1.53;;;;;;;;;;5033986;28;20309;-85
2023/05/09 14:36:34;;;;;;;2.00;1.27;;;;;;;;;;5027971;28;20482;-83
2023/05/09 14:39:00;;;;;;;1.90;1.40;;;;;;;;;;5031408;28;20588;-82
2023/05/09 14:41:26;;;;;;;1.53;0.90;;;;;;;;;;5031224;28;20415;-83
2023/05/09 14:43:52;;;;;;;1.80;1.17;;;;;;;;;;5034454;28;20427;-86